sensor_id;sensor_type;location;lat;lon;timestamp;P1;durP1;ratioP1;P2;durP2;ratioP2
17606;SDS011;69222;52.242;20.980;2023-04-24T00:00:58;8.30;;;6.80;;
17606;SDS011;69222;52.242;20.980;2023-04-24T00:03:27;10.55;;;6.55;;
17606;SDS011;69222;52.242;20.980;2023-04-24T00:05:56;7.10;;;6.23;;
17606;SDS011;69222;52.242;20.980;2023-04-24T00:08:25;9.27;;;6.72;;
17606;SDS011;69222;52.242;20.980;2023-04-24T00:10:53;8.50;;;6.37;;
17606;SDS011;69222;52.242;20.980;2023-04-24T00:13:21;6.60;;;6.00;;
17606;SDS011;69222;52.242;20.980;2023-04-24T00:15:50;10.67;;;6.70;;
17606;SDS011;69222;52.242;20.980;2023-04-24T00:18:18;7.40;;;6.15;;
17606;SDS011;69222;52.242;20.980;2023-04-24T00:20:46;7.87;;;6.07;;
17606;SDS011;69222;52.242;20.980;2023-04-24T00:23:17;8.55;;;6.80;;
17606;SDS011;69222;52.242;20.980;2023-04-24T00:25:47;11.43;;;6.72;;
17606;SDS011;69222;52.242;20.980;2023-04-24T00:28:15;7.80;;;6.18;;
17606;SDS011;69222;52.242;20.980;2023-04-24T00:30:43;11.07;;;7.25;;
17606;SDS011;69222;52.242;20.980;2023-04-24T00:33:13;7.95;;;7.03;;
17606;SDS011;69222;52.242;20.980;2023-04-24T00:35:41;10.85;;;6.53;;
17606;SDS011;69222;52.242;20.980;2023-04-24T00:38:09;9.90;;;7.30;;
17606;SDS011;69222;52.242;20.980;2023-04-24T00:40:37;8.55;;;6.60;;
17606;SDS011;69222;52.242;20.980;2023-04-24T00:43:05;7.57;;;6.53;;
17606;SDS011;69222;52.242;20.980;2023-04-24T00:45:35;9.55;;;6.47;;
17606;SDS011;69222;52.242;20.980;2023-04-24T00:48:03;10.13;;;6.50;;
17606;SDS011;69222;52.242;20.980;2023-04-24T00:50:35;10.65;;;6.40;;
17606;SDS011;69222;52.242;20.980;2023-04-24T00:53:03;7.72;;;6.38;;
17606;SDS011;69222;52.242;20.980;2023-04-24T00:55:32;10.20;;;6.57;;
17606;SDS011;69222;52.242;20.980;2023-04-24T00:58:00;8.93;;;7.17;;
17606;SDS011;69222;52.242;20.980;2023-04-24T01:00:28;7.93;;;6.63;;
17606;SDS011;69222;52.242;20.980;2023-04-24T01:02:57;9.68;;;6.97;;
17606;SDS011;69222;52.242;20.980;2023-04-24T01:05:28;8.57;;;6.57;;
17606;SDS011;69222;52.242;20.980;2023-04-24T01:07:58;7.80;;;6.93;;
17606;SDS011;69222;52.242;20.980;2023-04-24T01:10:27;9.48;;;6.30;;
17606;SDS011;69222;52.242;20.980;2023-04-24T01:12:58;9.17;;;6.50;;
17606;SDS011;69222;52.242;20.980;2023-04-24T01:15:26;9.63;;;6.90;;
17606;SDS011;69222;52.242;20.980;2023-04-24T01:17:54;12.33;;;6.87;;
17606;SDS011;69222;52.242;20.980;2023-04-24T01:20:22;8.63;;;7.20;;
17606;SDS011;69222;52.242;20.980;2023-04-24T01:22:54;9.67;;;6.27;;
17606;SDS011;69222;52.242;20.980;2023-04-24T01:25:22;8.93;;;6.87;;
17606;SDS011;69222;52.242;20.980;2023-04-24T01:27:54;9.27;;;6.53;;
17606;SDS011;69222;52.242;20.980;2023-04-24T01:30:22;6.67;;;5.83;;
17606;SDS011;69222;52.242;20.980;2023-04-24T01:32:50;6.53;;;5.87;;
17606;SDS011;69222;52.242;20.980;2023-04-24T01:35:19;8.73;;;7.07;;
17606;SDS011;69222;52.242;20.980;2023-04-24T01:37:47;10.30;;;6.57;;
17606;SDS011;69222;52.242;20.980;2023-04-24T01:40:16;8.93;;;6.50;;
17606;SDS011;69222;52.242;20.980;2023-04-24T01:42:44;7.50;;;6.33;;
17606;SDS011;69222;52.242;20.980;2023-04-24T01:45:13;8.90;;;6.50;;
17606;SDS011;69222;52.242;20.980;2023-04-24T01:47:41;7.93;;;6.60;;
17606;SDS011;69222;52.242;20.980;2023-04-24T01:50:09;8.90;;;7.03;;
17606;SDS011;69222;52.242;20.980;2023-04-24T01:52:37;7.15;;;6.45;;
17606;SDS011;69222;52.242;20.980;2023-04-24T01:55:06;8.40;;;6.65;;
17606;SDS011;69222;52.242;20.980;2023-04-24T01:57:36;8.85;;;6.80;;
17606;SDS011;69222;52.242;20.980;2023-04-24T02:00:05;9.07;;;6.97;;
17606;SDS011;69222;52.242;20.980;2023-04-24T02:02:34;7.10;;;6.10;;
17606;SDS011;69222;52.242;20.980;2023-04-24T02:05:02;11.10;;;6.83;;
17606;SDS011;69222;52.242;20.980;2023-04-24T02:07:33;13.27;;;7.03;;
17606;SDS011;69222;52.242;20.980;2023-04-24T02:10:01;9.80;;;6.90;;
17606;SDS011;69222;52.242;20.980;2023-04-24T02:12:30;9.33;;;7.20;;
17606;SDS011;69222;52.242;20.980;2023-04-24T02:14:59;7.77;;;6.57;;
17606;SDS011;69222;52.242;20.980;2023-04-24T02:17:28;8.50;;;6.43;;
17606;SDS011;69222;52.242;20.980;2023-04-24T02:19:57;10.90;;;6.60;;
17606;SDS011;69222;52.242;20.980;2023-04-24T02:22:25;8.40;;;7.30;;
17606;SDS011;69222;52.242;20.980;2023-04-24T02:24:53;8.47;;;7.20;;
17606;SDS011;69222;52.242;20.980;2023-04-24T02:27:21;9.43;;;6.67;;
17606;SDS011;69222;52.242;20.980;2023-04-24T02:29:49;9.60;;;7.10;;
17606;SDS011;69222;52.242;20.980;2023-04-24T02:32:19;9.23;;;7.20;;
17606;SDS011;69222;52.242;20.980;2023-04-24T02:34:47;7.77;;;6.87;;
17606;SDS011;69222;52.242;20.980;2023-04-24T02:37:15;10.07;;;7.20;;
17606;SDS011;69222;52.242;20.980;2023-04-24T02:39:42;9.10;;;7.37;;
17606;SDS011;69222;52.242;20.980;2023-04-24T02:42:10;9.77;;;7.03;;
17606;SDS011;69222;52.242;20.980;2023-04-24T02:44:38;9.57;;;7.23;;
17606;SDS011;69222;52.242;20.980;2023-04-24T02:47:07;9.47;;;7.17;;
17606;SDS011;69222;52.242;20.980;2023-04-24T02:49:36;10.80;;;7.43;;
17606;SDS011;69222;52.242;20.980;2023-04-24T02:52:05;11.33;;;6.93;;
17606;SDS011;69222;52.242;20.980;2023-04-24T02:54:33;10.03;;;7.43;;
17606;SDS011;69222;52.242;20.980;2023-04-24T02:57:01;11.43;;;7.47;;
17606;SDS011;69222;52.242;20.980;2023-04-24T02:59:29;10.47;;;7.17;;
17606;SDS011;69222;52.242;20.980;2023-04-24T03:01:58;12.27;;;7.17;;
17606;SDS011;69222;52.242;20.980;2023-04-24T03:04:26;10.47;;;7.30;;
17606;SDS011;69222;52.242;20.980;2023-04-24T03:06:56;7.90;;;6.93;;
17606;SDS011;69222;52.242;20.980;2023-04-24T03:09:23;8.50;;;6.90;;
17606;SDS011;69222;52.242;20.980;2023-04-24T03:11:51;11.80;;;6.73;;
17606;SDS011;69222;52.242;20.980;2023-04-24T03:14:19;10.53;;;7.60;;
17606;SDS011;69222;52.242;20.980;2023-04-24T03:16:47;9.70;;;7.33;;
17606;SDS011;69222;52.242;20.980;2023-04-24T03:19:16;13.93;;;7.30;;
17606;SDS011;69222;52.242;20.980;2023-04-24T03:21:44;10.50;;;7.73;;
17606;SDS011;69222;52.242;20.980;2023-04-24T03:24:13;9.63;;;7.67;;
17606;SDS011;69222;52.242;20.980;2023-04-24T03:26:41;7.97;;;7.00;;
17606;SDS011;69222;52.242;20.980;2023-04-24T03:29:09;11.20;;;7.43;;
17606;SDS011;69222;52.242;20.980;2023-04-24T03:31:37;9.30;;;7.30;;
17606;SDS011;69222;52.242;20.980;2023-04-24T03:34:05;9.20;;;7.33;;
17606;SDS011;69222;52.242;20.980;2023-04-24T03:36:33;9.10;;;7.77;;
17606;SDS011;69222;52.242;20.980;2023-04-24T03:39:01;12.70;;;7.30;;
17606;SDS011;69222;52.242;20.980;2023-04-24T03:41:31;11.43;;;7.03;;
17606;SDS011;69222;52.242;20.980;2023-04-24T03:43:59;9.63;;;7.40;;
17606;SDS011;69222;52.242;20.980;2023-04-24T03:46:27;11.47;;;7.43;;
17606;SDS011;69222;52.242;20.980;2023-04-24T03:48:55;8.73;;;6.90;;
17606;SDS011;69222;52.242;20.980;2023-04-24T03:51:23;10.57;;;7.43;;
17606;SDS011;69222;52.242;20.980;2023-04-24T03:53:51;10.77;;;6.90;;
17606;SDS011;69222;52.242;20.980;2023-04-24T03:56:19;10.33;;;7.27;;
17606;SDS011;69222;52.242;20.980;2023-04-24T03:58:48;9.23;;;7.07;;
17606;SDS011;69222;52.242;20.980;2023-04-24T04:01:16;11.30;;;7.37;;
17606;SDS011;69222;52.242;20.980;2023-04-24T04:03:45;10.60;;;6.93;;
17606;SDS011;69222;52.242;20.980;2023-04-24T04:06:13;13.03;;;6.90;;
17606;SDS011;69222;52.242;20.980;2023-04-24T04:08:41;13.03;;;7.50;;
17606;SDS011;69222;52.242;20.980;2023-04-24T04:11:09;7.60;;;6.80;;
17606;SDS011;69222;52.242;20.980;2023-04-24T04:13:37;8.90;;;7.10;;
17606;SDS011;69222;52.242;20.980;2023-04-24T04:16:08;9.13;;;7.03;;
17606;SDS011;69222;52.242;20.980;2023-04-24T04:18:36;8.97;;;7.10;;
17606;SDS011;69222;52.242;20.980;2023-04-24T04:21:04;10.63;;;7.97;;
17606;SDS011;69222;52.242;20.980;2023-04-24T04:23:32;8.40;;;7.20;;
17606;SDS011;69222;52.242;20.980;2023-04-24T04:25:59;12.07;;;7.47;;
17606;SDS011;69222;52.242;20.980;2023-04-24T04:28:27;10.67;;;7.73;;
17606;SDS011;69222;52.242;20.980;2023-04-24T04:30:57;10.47;;;7.70;;
17606;SDS011;69222;52.242;20.980;2023-04-24T04:33:26;10.10;;;7.13;;
17606;SDS011;69222;52.242;20.980;2023-04-24T04:35:54;11.37;;;7.70;;
17606;SDS011;69222;52.242;20.980;2023-04-24T04:38:23;10.00;;;7.07;;
17606;SDS011;69222;52.242;20.980;2023-04-24T04:40:53;12.07;;;7.57;;
17606;SDS011;69222;52.242;20.980;2023-04-24T04:43:22;8.30;;;7.17;;
17606;SDS011;69222;52.242;20.980;2023-04-24T04:45:51;8.87;;;7.40;;
17606;SDS011;69222;52.242;20.980;2023-04-24T04:48:21;10.90;;;7.30;;
17606;SDS011;69222;52.242;20.980;2023-04-24T04:50:50;12.23;;;7.03;;
17606;SDS011;69222;52.242;20.980;2023-04-24T04:53:18;9.60;;;7.37;;
17606;SDS011;69222;52.242;20.980;2023-04-24T04:55:46;11.57;;;7.33;;
17606;SDS011;69222;52.242;20.980;2023-04-24T04:58:14;14.13;;;7.43;;
17606;SDS011;69222;52.242;20.980;2023-04-24T05:00:42;10.43;;;7.07;;
17606;SDS011;69222;52.242;20.980;2023-04-24T05:03:10;9.93;;;6.90;;
17606;SDS011;69222;52.242;20.980;2023-04-24T05:05:44;9.90;;;6.97;;
17606;SDS011;69222;52.242;20.980;2023-04-24T05:08:13;8.73;;;7.07;;
17606;SDS011;69222;52.242;20.980;2023-04-24T05:10:53;14.05;;;7.72;;
17606;SDS011;69222;52.242;20.980;2023-04-24T05:13:21;12.32;;;8.02;;
17606;SDS011;69222;52.242;20.980;2023-04-24T05:16:04;13.93;;;7.30;;
17606;SDS011;69222;52.242;20.980;2023-04-24T05:18:33;10.85;;;6.78;;
17606;SDS011;69222;52.242;20.980;2023-04-24T05:21:01;11.02;;;7.10;;
17606;SDS011;69222;52.242;20.980;2023-04-24T05:23:30;12.02;;;8.15;;
17606;SDS011;69222;52.242;20.980;2023-04-24T05:25:58;9.60;;;7.50;;
17606;SDS011;69222;52.242;20.980;2023-04-24T05:28:26;12.02;;;7.32;;
17606;SDS011;69222;52.242;20.980;2023-04-24T05:30:54;10.63;;;6.28;;
17606;SDS011;69222;52.242;20.980;2023-04-24T05:33:23;10.80;;;7.38;;
17606;SDS011;69222;52.242;20.980;2023-04-24T05:35:51;9.32;;;7.05;;
17606;SDS011;69222;52.242;20.980;2023-04-24T05:38:19;12.23;;;7.82;;
17606;SDS011;69222;52.242;20.980;2023-04-24T05:40:48;10.07;;;7.15;;
17606;SDS011;69222;52.242;20.980;2023-04-24T05:43:16;9.60;;;7.90;;
17606;SDS011;69222;52.242;20.980;2023-04-24T05:45:45;12.52;;;6.82;;
17606;SDS011;69222;52.242;20.980;2023-04-24T05:48:13;16.08;;;7.55;;
17606;SDS011;69222;52.242;20.980;2023-04-24T05:50:41;12.32;;;6.97;;
17606;SDS011;69222;52.242;20.980;2023-04-24T05:53:09;10.82;;;7.38;;
17606;SDS011;69222;52.242;20.980;2023-04-24T05:55:37;9.68;;;6.50;;
17606;SDS011;69222;52.242;20.980;2023-04-24T05:58:07;12.38;;;7.68;;
17606;SDS011;69222;52.242;20.980;2023-04-24T06:00:35;10.88;;;7.43;;
17606;SDS011;69222;52.242;20.980;2023-04-24T06:03:04;12.13;;;7.00;;
17606;SDS011;69222;52.242;20.980;2023-04-24T06:05:32;10.63;;;6.93;;
17606;SDS011;69222;52.242;20.980;2023-04-24T06:08:01;10.98;;;7.10;;
17606;SDS011;69222;52.242;20.980;2023-04-24T06:10:29;10.50;;;7.18;;
17606;SDS011;69222;52.242;20.980;2023-04-24T06:12:57;11.23;;;6.88;;
17606;SDS011;69222;52.242;20.980;2023-04-24T06:15:29;10.02;;;7.22;;
17606;SDS011;69222;52.242;20.980;2023-04-24T06:17:57;13.55;;;7.28;;
17606;SDS011;69222;52.242;20.980;2023-04-24T06:20:26;12.70;;;6.57;;
17606;SDS011;69222;52.242;20.980;2023-04-24T06:22:54;12.43;;;7.10;;
17606;SDS011;69222;52.242;20.980;2023-04-24T06:27:52;10.65;;;6.80;;
17606;SDS011;69222;52.242;20.980;2023-04-24T06:30:20;11.70;;;7.10;;
17606;SDS011;69222;52.242;20.980;2023-04-24T06:32:50;10.55;;;7.40;;
17606;SDS011;69222;52.242;20.980;2023-04-24T06:35:18;10.20;;;7.40;;
17606;SDS011;69222;52.242;20.980;2023-04-24T06:37:46;14.90;;;7.50;;
17606;SDS011;69222;52.242;20.980;2023-04-24T06:40:14;13.70;;;6.97;;
17606;SDS011;69222;52.242;20.980;2023-04-24T06:42:44;12.30;;;7.00;;
17606;SDS011;69222;52.242;20.980;2023-04-24T06:45:12;8.45;;;7.03;;
17606;SDS011;69222;52.242;20.980;2023-04-24T06:47:41;11.00;;;7.15;;
17606;SDS011;69222;52.242;20.980;2023-04-24T06:50:10;11.88;;;7.38;;
17606;SDS011;69222;52.242;20.980;2023-04-24T06:52:38;10.13;;;7.55;;
17606;SDS011;69222;52.242;20.980;2023-04-24T06:55:07;10.75;;;6.55;;
17606;SDS011;69222;52.242;20.980;2023-04-24T06:57:36;8.18;;;6.38;;
17606;SDS011;69222;52.242;20.980;2023-04-24T07:00:05;11.18;;;7.05;;
17606;SDS011;69222;52.242;20.980;2023-04-24T07:02:35;12.85;;;6.53;;
17606;SDS011;69222;52.242;20.980;2023-04-24T07:05:04;11.95;;;6.93;;
17606;SDS011;69222;52.242;20.980;2023-04-24T07:07:34;7.32;;;6.18;;
17606;SDS011;69222;52.242;20.980;2023-04-24T07:10:04;10.15;;;6.00;;
17606;SDS011;69222;52.242;20.980;2023-04-24T07:12:33;10.30;;;6.18;;
17606;SDS011;69222;52.242;20.980;2023-04-24T07:15:02;10.65;;;6.72;;
17606;SDS011;69222;52.242;20.980;2023-04-24T07:17:30;11.50;;;6.70;;
17606;SDS011;69222;52.242;20.980;2023-04-24T07:19:58;10.38;;;6.43;;
17606;SDS011;69222;52.242;20.980;2023-04-24T07:22:26;13.18;;;6.18;;
17606;SDS011;69222;52.242;20.980;2023-04-24T07:24:55;10.52;;;6.85;;
17606;SDS011;69222;52.242;20.980;2023-04-24T07:27:24;12.50;;;6.85;;
17606;SDS011;69222;52.242;20.980;2023-04-24T07:29:53;10.00;;;6.97;;
17606;SDS011;69222;52.242;20.980;2023-04-24T07:32:20;11.27;;;6.10;;
17606;SDS011;69222;52.242;20.980;2023-04-24T07:34:48;12.32;;;6.78;;
17606;SDS011;69222;52.242;20.980;2023-04-24T07:37:16;9.52;;;7.07;;
17606;SDS011;69222;52.242;20.980;2023-04-24T07:39:44;8.15;;;6.55;;
17606;SDS011;69222;52.242;20.980;2023-04-24T07:42:13;11.10;;;6.88;;
17606;SDS011;69222;52.242;20.980;2023-04-24T07:44:41;13.73;;;6.47;;
17606;SDS011;69222;52.242;20.980;2023-04-24T07:47:09;9.18;;;6.45;;
17606;SDS011;69222;52.242;20.980;2023-04-24T07:49:37;8.80;;;7.18;;
17606;SDS011;69222;52.242;20.980;2023-04-24T07:52:05;11.48;;;6.88;;
17606;SDS011;69222;52.242;20.980;2023-04-24T07:54:33;12.18;;;7.07;;
17606;SDS011;69222;52.242;20.980;2023-04-24T07:57:01;12.90;;;6.95;;
17606;SDS011;69222;52.242;20.980;2023-04-24T07:59:31;10.70;;;7.82;;
17606;SDS011;69222;52.242;20.980;2023-04-24T08:01:59;10.85;;;7.10;;
17606;SDS011;69222;52.242;20.980;2023-04-24T08:04:28;12.80;;;7.45;;
17606;SDS011;69222;52.242;20.980;2023-04-24T08:06:56;13.27;;;7.13;;
17606;SDS011;69222;52.242;20.980;2023-04-24T08:09:24;12.88;;;6.75;;
17606;SDS011;69222;52.242;20.980;2023-04-24T08:11:53;12.93;;;7.43;;
17606;SDS011;69222;52.242;20.980;2023-04-24T08:14:21;9.23;;;6.72;;
17606;SDS011;69222;52.242;20.980;2023-04-24T08:16:50;13.90;;;7.57;;
17606;SDS011;69222;52.242;20.980;2023-04-24T08:19:18;13.27;;;7.57;;
17606;SDS011;69222;52.242;20.980;2023-04-24T08:21:46;11.73;;;7.65;;
17606;SDS011;69222;52.242;20.980;2023-04-24T08:24:14;10.85;;;7.45;;
17606;SDS011;69222;52.242;20.980;2023-04-24T08:26:41;16.33;;;7.20;;
17606;SDS011;69222;52.242;20.980;2023-04-24T08:29:10;9.82;;;7.32;;
17606;SDS011;69222;52.242;20.980;2023-04-24T08:31:38;10.20;;;6.95;;
17606;SDS011;69222;52.242;20.980;2023-04-24T08:34:07;9.93;;;7.35;;
17606;SDS011;69222;52.242;20.980;2023-04-24T08:36:37;10.15;;;7.53;;
17606;SDS011;69222;52.242;20.980;2023-04-24T08:39:12;9.27;;;7.55;;
17606;SDS011;69222;52.242;20.980;2023-04-24T08:41:41;11.57;;;6.93;;
17606;SDS011;69222;52.242;20.980;2023-04-24T08:44:12;11.88;;;7.35;;
17606;SDS011;69222;52.242;20.980;2023-04-24T08:46:42;9.35;;;7.32;;
17606;SDS011;69222;52.242;20.980;2023-04-24T08:49:14;10.18;;;7.22;;
17606;SDS011;69222;52.242;20.980;2023-04-24T08:51:42;9.13;;;7.60;;
17606;SDS011;69222;52.242;20.980;2023-04-24T08:54:11;9.85;;;7.10;;
17606;SDS011;69222;52.242;20.980;2023-04-24T08:56:40;10.52;;;7.38;;
17606;SDS011;69222;52.242;20.980;2023-04-24T08:59:11;10.77;;;7.05;;
17606;SDS011;69222;52.242;20.980;2023-04-24T09:01:39;15.43;;;7.90;;
17606;SDS011;69222;52.242;20.980;2023-04-24T09:04:08;11.95;;;7.45;;
17606;SDS011;69222;52.242;20.980;2023-04-24T09:06:40;11.30;;;6.95;;
17606;SDS011;69222;52.242;20.980;2023-04-24T09:09:08;11.55;;;6.22;;
17606;SDS011;69222;52.242;20.980;2023-04-24T09:11:38;10.15;;;6.95;;
17606;SDS011;69222;52.242;20.980;2023-04-24T09:14:06;10.38;;;6.40;;
17606;SDS011;69222;52.242;20.980;2023-04-24T09:16:36;12.43;;;7.65;;
17606;SDS011;69222;52.242;20.980;2023-04-24T09:19:04;8.10;;;6.50;;
17606;SDS011;69222;52.242;20.980;2023-04-24T09:21:32;13.50;;;6.80;;
17606;SDS011;69222;52.242;20.980;2023-04-24T09:24:03;11.50;;;6.43;;
17606;SDS011;69222;52.242;20.980;2023-04-24T09:26:34;10.15;;;7.00;;
17606;SDS011;69222;52.242;20.980;2023-04-24T09:29:03;8.45;;;5.55;;
17606;SDS011;69222;52.242;20.980;2023-04-24T09:31:32;7.68;;;5.55;;
17606;SDS011;69222;52.242;20.980;2023-04-24T09:34:00;7.75;;;5.60;;
17606;SDS011;69222;52.242;20.980;2023-04-24T09:36:34;10.68;;;5.90;;
17606;SDS011;69222;52.242;20.980;2023-04-24T09:39:06;8.38;;;5.82;;
17606;SDS011;69222;52.242;20.980;2023-04-24T09:41:43;8.75;;;5.38;;
17606;SDS011;69222;52.242;20.980;2023-04-24T09:44:12;7.90;;;5.30;;
17606;SDS011;69222;52.242;20.980;2023-04-24T09:46:42;10.32;;;5.00;;
17606;SDS011;69222;52.242;20.980;2023-04-24T09:49:16;8.48;;;5.05;;
17606;SDS011;69222;52.242;20.980;2023-04-24T09:51:49;5.03;;;4.28;;
17606;SDS011;69222;52.242;20.980;2023-04-24T09:54:19;4.75;;;3.65;;
17606;SDS011;69222;52.242;20.980;2023-04-24T09:56:48;11.27;;;4.07;;
17606;SDS011;69222;52.242;20.980;2023-04-24T09:59:18;4.10;;;3.65;;
17606;SDS011;69222;52.242;20.980;2023-04-24T10:01:47;4.15;;;3.75;;
17606;SDS011;69222;52.242;20.980;2023-04-24T10:04:16;6.55;;;3.80;;
17606;SDS011;69222;52.242;20.980;2023-04-24T10:06:46;5.05;;;3.88;;
17606;SDS011;69222;52.242;20.980;2023-04-24T10:09:16;4.32;;;3.92;;
17606;SDS011;69222;52.242;20.980;2023-04-24T10:11:46;8.93;;;3.60;;
17606;SDS011;69222;52.242;20.980;2023-04-24T10:14:16;6.07;;;3.83;;
17606;SDS011;69222;52.242;20.980;2023-04-24T10:16:44;6.45;;;3.72;;
17606;SDS011;69222;52.242;20.980;2023-04-24T10:19:14;4.53;;;3.90;;
17606;SDS011;69222;52.242;20.980;2023-04-24T10:21:43;4.95;;;3.58;;
17606;SDS011;69222;52.242;20.980;2023-04-24T10:24:13;6.45;;;4.25;;
17606;SDS011;69222;52.242;20.980;2023-04-24T10:26:42;7.10;;;4.45;;
17606;SDS011;69222;52.242;20.980;2023-04-24T10:29:12;5.63;;;4.88;;
17606;SDS011;69222;52.242;20.980;2023-04-24T10:31:42;7.72;;;4.93;;
17606;SDS011;69222;52.242;20.980;2023-04-24T10:34:14;6.70;;;5.10;;
17606;SDS011;69222;52.242;20.980;2023-04-24T10:36:44;7.10;;;4.68;;
17606;SDS011;69222;52.242;20.980;2023-04-24T10:39:15;7.80;;;5.10;;
17606;SDS011;69222;52.242;20.980;2023-04-24T10:41:52;7.25;;;5.30;;
17606;SDS011;69222;52.242;20.980;2023-04-24T10:44:24;5.63;;;4.97;;
17606;SDS011;69222;52.242;20.980;2023-04-24T10:46:53;5.75;;;4.78;;
17606;SDS011;69222;52.242;20.980;2023-04-24T10:49:27;6.07;;;5.03;;
17606;SDS011;69222;52.242;20.980;2023-04-24T10:51:59;7.35;;;5.35;;
17606;SDS011;69222;52.242;20.980;2023-04-24T10:54:29;5.55;;;4.90;;
17606;SDS011;69222;52.242;20.980;2023-04-24T11:02:58;7.47;;;5.47;;
17606;SDS011;69222;52.242;20.980;2023-04-24T11:08:37;6.43;;;5.32;;
17606;SDS011;69222;52.242;20.980;2023-04-24T11:11:10;8.52;;;5.00;;
17606;SDS011;69222;52.242;20.980;2023-04-24T11:16:32;7.45;;;4.63;;
17606;SDS011;69222;52.242;20.980;2023-04-24T11:19:03;6.10;;;4.40;;
17606;SDS011;69222;52.242;20.980;2023-04-24T11:21:39;7.60;;;4.60;;
17606;SDS011;69222;52.242;20.980;2023-04-24T11:24:24;9.40;;;5.40;;
17606;SDS011;69222;52.242;20.980;2023-04-24T11:26:53;6.80;;;4.68;;
17606;SDS011;69222;52.242;20.980;2023-04-24T11:29:23;11.55;;;4.53;;
17606;SDS011;69222;52.242;20.980;2023-04-24T11:32:24;5.90;;;4.68;;
17606;SDS011;69222;52.242;20.980;2023-04-24T11:34:54;7.25;;;4.40;;
17606;SDS011;69222;52.242;20.980;2023-04-24T11:37:24;4.95;;;4.45;;
17606;SDS011;69222;52.242;20.980;2023-04-24T11:39:53;11.57;;;4.70;;
17606;SDS011;69222;52.242;20.980;2023-04-24T11:42:22;7.90;;;4.78;;
17606;SDS011;69222;52.242;20.980;2023-04-24T11:44:52;5.15;;;3.92;;
17606;SDS011;69222;52.242;20.980;2023-04-24T11:47:28;5.25;;;4.40;;
17606;SDS011;69222;52.242;20.980;2023-04-24T11:49:57;7.38;;;4.00;;
17606;SDS011;69222;52.242;20.980;2023-04-24T11:52:27;6.10;;;4.53;;
17606;SDS011;69222;52.242;20.980;2023-04-24T11:54:55;5.90;;;3.97;;
17606;SDS011;69222;52.242;20.980;2023-04-24T11:57:24;5.68;;;3.92;;
17606;SDS011;69222;52.242;20.980;2023-04-24T11:59:55;4.72;;;4.20;;
17606;SDS011;69222;52.242;20.980;2023-04-24T12:02:23;7.32;;;4.10;;
17606;SDS011;69222;52.242;20.980;2023-04-24T12:04:54;4.72;;;3.85;;
17606;SDS011;69222;52.242;20.980;2023-04-24T12:07:23;7.25;;;4.35;;
17606;SDS011;69222;52.242;20.980;2023-04-24T12:09:55;6.97;;;4.60;;
17606;SDS011;69222;52.242;20.980;2023-04-24T12:12:26;9.60;;;4.32;;
17606;SDS011;69222;52.242;20.980;2023-04-24T12:14:56;4.90;;;4.40;;
17606;SDS011;69222;52.242;20.980;2023-04-24T12:17:25;4.63;;;4.20;;
17606;SDS011;69222;52.242;20.980;2023-04-24T12:20:00;4.70;;;4.20;;
17606;SDS011;69222;52.242;20.980;2023-04-24T12:22:42;4.97;;;4.47;;
17606;SDS011;69222;52.242;20.980;2023-04-24T12:25:13;4.55;;;4.07;;
17606;SDS011;69222;52.242;20.980;2023-04-24T12:27:42;4.25;;;3.85;;
17606;SDS011;69222;52.242;20.980;2023-04-24T12:30:11;5.35;;;3.95;;
17606;SDS011;69222;52.242;20.980;2023-04-24T12:32:41;4.78;;;4.03;;
17606;SDS011;69222;52.242;20.980;2023-04-24T12:35:11;4.45;;;3.97;;
17606;SDS011;69222;52.242;20.980;2023-04-24T12:37:41;4.57;;;4.00;;
17606;SDS011;69222;52.242;20.980;2023-04-24T12:40:13;7.13;;;3.47;;
17606;SDS011;69222;52.242;20.980;2023-04-24T12:42:42;9.68;;;4.50;;
17606;SDS011;69222;52.242;20.980;2023-04-24T12:45:11;4.63;;;4.22;;
17606;SDS011;69222;52.242;20.980;2023-04-24T12:47:39;6.60;;;4.47;;
17606;SDS011;69222;52.242;20.980;2023-04-24T12:50:08;10.38;;;4.70;;
17606;SDS011;69222;52.242;20.980;2023-04-24T12:52:39;21.98;;;5.07;;
17606;SDS011;69222;52.242;20.980;2023-04-24T12:55:08;18.75;;;4.00;;
17606;SDS011;69222;52.242;20.980;2023-04-24T12:57:37;23.48;;;3.70;;
17606;SDS011;69222;52.242;20.980;2023-04-24T13:00:06;16.50;;;4.57;;
17606;SDS011;69222;52.242;20.980;2023-04-24T13:02:35;11.25;;;3.78;;
17606;SDS011;69222;52.242;20.980;2023-04-24T13:05:04;17.27;;;3.85;;
17606;SDS011;69222;52.242;20.980;2023-04-24T13:07:32;13.57;;;3.10;;
17606;SDS011;69222;52.242;20.980;2023-04-24T13:10:02;8.10;;;3.08;;
17606;SDS011;69222;52.242;20.980;2023-04-24T13:12:30;6.10;;;3.25;;
17606;SDS011;69222;52.242;20.980;2023-04-24T13:14:58;20.65;;;3.10;;
17606;SDS011;69222;52.242;20.980;2023-04-24T13:17:26;10.75;;;3.17;;
17606;SDS011;69222;52.242;20.980;2023-04-24T13:19:54;5.47;;;2.72;;
17606;SDS011;69222;52.242;20.980;2023-04-24T13:22:22;9.85;;;2.88;;
17606;SDS011;69222;52.242;20.980;2023-04-24T13:24:51;8.73;;;3.25;;
17606;SDS011;69222;52.242;20.980;2023-04-24T13:27:20;9.02;;;2.92;;
17606;SDS011;69222;52.242;20.980;2023-04-24T13:29:48;7.05;;;3.03;;
17606;SDS011;69222;52.242;20.980;2023-04-24T13:32:16;9.57;;;2.80;;
17606;SDS011;69222;52.242;20.980;2023-04-24T13:34:44;7.80;;;2.75;;
17606;SDS011;69222;52.242;20.980;2023-04-24T13:37:13;6.28;;;2.47;;
17606;SDS011;69222;52.242;20.980;2023-04-24T13:39:41;5.50;;;3.00;;
17606;SDS011;69222;52.242;20.980;2023-04-24T13:42:09;3.45;;;2.60;;
17606;SDS011;69222;52.242;20.980;2023-04-24T13:44:39;3.47;;;2.95;;
17606;SDS011;69222;52.242;20.980;2023-04-24T13:47:07;6.40;;;3.25;;
17606;SDS011;69222;52.242;20.980;2023-04-24T13:49:35;6.20;;;3.05;;
17606;SDS011;69222;52.242;20.980;2023-04-24T13:52:03;5.57;;;3.05;;
17606;SDS011;69222;52.242;20.980;2023-04-24T13:54:31;3.03;;;2.72;;
17606;SDS011;69222;52.242;20.980;2023-04-24T13:56:59;3.65;;;2.38;;
17606;SDS011;69222;52.242;20.980;2023-04-24T13:59:29;3.72;;;2.80;;
17606;SDS011;69222;52.242;20.980;2023-04-24T14:01:58;4.72;;;2.80;;
17606;SDS011;69222;52.242;20.980;2023-04-24T14:04:26;9.02;;;3.00;;
17606;SDS011;69222;52.242;20.980;2023-04-24T14:06:54;4.68;;;2.78;;
17606;SDS011;69222;52.242;20.980;2023-04-24T14:09:22;4.43;;;2.38;;
17606;SDS011;69222;52.242;20.980;2023-04-24T14:11:51;3.20;;;2.80;;
17606;SDS011;69222;52.242;20.980;2023-04-24T14:14:19;2.97;;;2.65;;
17606;SDS011;69222;52.242;20.980;2023-04-24T14:16:47;4.43;;;2.80;;
17606;SDS011;69222;52.242;20.980;2023-04-24T14:19:16;3.97;;;2.80;;
17606;SDS011;69222;52.242;20.980;2023-04-24T14:21:44;5.30;;;2.30;;
17606;SDS011;69222;52.242;20.980;2023-04-24T14:24:12;3.10;;;2.70;;
17606;SDS011;69222;52.242;20.980;2023-04-24T14:26:40;3.03;;;2.72;;
17606;SDS011;69222;52.242;20.980;2023-04-24T14:29:08;4.80;;;2.80;;
17606;SDS011;69222;52.242;20.980;2023-04-24T14:31:40;2.95;;;2.72;;
17606;SDS011;69222;52.242;20.980;2023-04-24T14:34:08;2.95;;;2.70;;
17606;SDS011;69222;52.242;20.980;2023-04-24T14:36:38;4.25;;;3.22;;
17606;SDS011;69222;52.242;20.980;2023-04-24T14:39:06;3.60;;;3.25;;
17606;SDS011;69222;52.242;20.980;2023-04-24T14:41:34;4.22;;;2.40;;
17606;SDS011;69222;52.242;20.980;2023-04-24T14:44:03;4.28;;;2.80;;
17606;SDS011;69222;52.242;20.980;2023-04-24T14:46:32;6.28;;;2.95;;
17606;SDS011;69222;52.242;20.980;2023-04-24T14:49:00;4.68;;;3.25;;
17606;SDS011;69222;52.242;20.980;2023-04-24T14:51:29;8.68;;;2.97;;
17606;SDS011;69222;52.242;20.980;2023-04-24T14:53:58;2.75;;;2.55;;